sensor_id;sensor_type;location;lat;lon;timestamp;P1;durP1;ratioP1;P2;durP2;ratioP2
2173;SDS011;1093;51.424;11.764;2023-11-19T00:00:25;3.73;;;3.03;;
2173;SDS011;1093;51.424;11.764;2023-11-19T00:02:54;5.40;;;2.63;;
2173;SDS011;1093;51.424;11.764;2023-11-19T00:05:21;4.70;;;3.00;;
2173;SDS011;1093;51.424;11.764;2023-11-19T00:07:48;3.80;;;3.50;;
2173;SDS011;1093;51.424;11.764;2023-11-19T00:10:15;3.67;;;2.80;;
2173;SDS011;1093;51.424;11.764;2023-11-19T00:12:44;5.20;;;2.70;;
2173;SDS011;1093;51.424;11.764;2023-11-19T00:15:12;4.40;;;3.60;;
2173;SDS011;1093;51.424;11.764;2023-11-19T00:17:39;3.20;;;2.83;;
2173;SDS011;1093;51.424;11.764;2023-11-19T00:20:11;3.40;;;3.10;;
2173;SDS011;1093;51.424;11.764;2023-11-19T00:22:38;4.43;;;3.50;;
2173;SDS011;1093;51.424;11.764;2023-11-19T00:25:07;3.57;;;3.27;;
2173;SDS011;1093;51.424;11.764;2023-11-19T00:27:34;3.27;;;2.97;;
2173;SDS011;1093;51.424;11.764;2023-11-19T00:30:02;4.17;;;3.57;;
2173;SDS011;1093;51.424;11.764;2023-11-19T00:32:30;4.43;;;3.43;;
2173;SDS011;1093;51.424;11.764;2023-11-19T00:34:57;4.30;;;3.60;;
2173;SDS011;1093;51.424;11.764;2023-11-19T00:37:26;3.90;;;3.50;;
2173;SDS011;1093;51.424;11.764;2023-11-19T00:39:53;3.70;;;3.13;;
2173;SDS011;1093;51.424;11.764;2023-11-19T00:42:21;4.13;;;3.73;;
2173;SDS011;1093;51.424;11.764;2023-11-19T00:44:49;3.37;;;3.07;;
2173;SDS011;1093;51.424;11.764;2023-11-19T00:47:16;2.60;;;2.40;;
2173;SDS011;1093;51.424;11.764;2023-11-19T00:49:45;5.03;;;4.50;;
2173;SDS011;1093;51.424;11.764;2023-11-19T00:52:12;5.07;;;3.30;;
2173;SDS011;1093;51.424;11.764;2023-11-19T00:54:40;5.00;;;3.67;;
2173;SDS011;1093;51.424;11.764;2023-11-19T00:57:07;5.73;;;4.20;;
2173;SDS011;1093;51.424;11.764;2023-11-19T00:59:33;7.60;;;3.23;;
2173;SDS011;1093;51.424;11.764;2023-11-19T01:02:00;4.57;;;3.93;;
2173;SDS011;1093;51.424;11.764;2023-11-19T01:04:28;4.13;;;3.73;;
2173;SDS011;1093;51.424;11.764;2023-11-19T01:06:55;5.43;;;4.07;;
2173;SDS011;1093;51.424;11.764;2023-11-19T01:09:22;3.40;;;3.10;;
2173;SDS011;1093;51.424;11.764;2023-11-19T01:11:50;4.37;;;3.50;;
2173;SDS011;1093;51.424;11.764;2023-11-19T01:14:17;4.50;;;3.80;;
2173;SDS011;1093;51.424;11.764;2023-11-19T01:16:44;4.70;;;4.20;;
2173;SDS011;1093;51.424;11.764;2023-11-19T01:19:11;5.70;;;4.40;;
2173;SDS011;1093;51.424;11.764;2023-11-19T01:21:38;5.80;;;4.33;;
2173;SDS011;1093;51.424;11.764;2023-11-19T01:24:05;5.13;;;3.80;;
2173;SDS011;1093;51.424;11.764;2023-11-19T01:26:34;4.83;;;4.30;;
2173;SDS011;1093;51.424;11.764;2023-11-19T01:29:02;3.50;;;3.20;;
2173;SDS011;1093;51.424;11.764;2023-11-19T01:31:29;4.20;;;3.00;;
2173;SDS011;1093;51.424;11.764;2023-11-19T01:33:56;6.53;;;4.23;;
2173;SDS011;1093;51.424;11.764;2023-11-19T01:36:23;4.50;;;3.30;;
2173;SDS011;1093;51.424;11.764;2023-11-19T01:38:50;4.30;;;3.80;;
2173;SDS011;1093;51.424;11.764;2023-11-19T01:41:17;3.53;;;3.20;;
2173;SDS011;1093;51.424;11.764;2023-11-19T01:43:43;5.67;;;3.73;;
2173;SDS011;1093;51.424;11.764;2023-11-19T01:46:13;4.10;;;3.33;;
2173;SDS011;1093;51.424;11.764;2023-11-19T01:48:40;3.93;;;3.27;;
2173;SDS011;1093;51.424;11.764;2023-11-19T01:51:10;3.67;;;2.90;;
2173;SDS011;1093;51.424;11.764;2023-11-19T01:53:38;4.17;;;3.27;;
2173;SDS011;1093;51.424;11.764;2023-11-19T01:56:07;6.23;;;3.57;;
2173;SDS011;1093;51.424;11.764;2023-11-19T01:58:35;4.03;;;3.63;;
2173;SDS011;1093;51.424;11.764;2023-11-19T02:01:02;5.60;;;4.23;;
2173;SDS011;1093;51.424;11.764;2023-11-19T02:03:31;3.50;;;3.20;;
2173;SDS011;1093;51.424;11.764;2023-11-19T02:05:59;3.40;;;3.10;;
2173;SDS011;1093;51.424;11.764;2023-11-19T02:08:26;5.03;;;3.33;;
2173;SDS011;1093;51.424;11.764;2023-11-19T02:10:52;4.60;;;3.30;;
2173;SDS011;1093;51.424;11.764;2023-11-19T02:13:21;5.37;;;4.23;;
2173;SDS011;1093;51.424;11.764;2023-11-19T02:15:49;3.83;;;3.47;;
2173;SDS011;1093;51.424;11.764;2023-11-19T02:18:16;4.13;;;3.30;;
2173;SDS011;1093;51.424;11.764;2023-11-19T02:20:46;4.47;;;3.13;;
2173;SDS011;1093;51.424;11.764;2023-11-19T02:23:13;3.43;;;2.80;;
2173;SDS011;1093;51.424;11.764;2023-11-19T02:25:40;3.97;;;3.30;;
2173;SDS011;1093;51.424;11.764;2023-11-19T02:28:08;3.00;;;2.60;;
2173;SDS011;1093;51.424;11.764;2023-11-19T02:30:37;3.07;;;2.77;;
2173;SDS011;1093;51.424;11.764;2023-11-19T02:33:04;3.10;;;2.80;;
2173;SDS011;1093;51.424;11.764;2023-11-19T02:35:31;3.30;;;3.00;;
2173;SDS011;1093;51.424;11.764;2023-11-19T02:37:58;6.20;;;3.70;;
2173;SDS011;1093;51.424;11.764;2023-11-19T02:40:25;4.63;;;2.90;;
2173;SDS011;1093;51.424;11.764;2023-11-19T02:42:53;3.33;;;2.90;;
2173;SDS011;1093;51.424;11.764;2023-11-19T02:45:22;2.50;;;1.70;;
2173;SDS011;1093;51.424;11.764;2023-11-19T02:47:49;1.90;;;1.80;;
2173;SDS011;1093;51.424;11.764;2023-11-19T02:50:16;1.70;;;1.60;;
2173;SDS011;1093;51.424;11.764;2023-11-19T02:52:50;1.40;;;1.30;;
2173;SDS011;1093;51.424;11.764;2023-11-19T02:55:18;1.93;;;1.70;;
2173;SDS011;1093;51.424;11.764;2023-11-19T02:57:45;2.20;;;1.90;;
2173;SDS011;1093;51.424;11.764;2023-11-19T03:02:42;1.50;;;1.40;;
2173;SDS011;1093;51.424;11.764;2023-11-19T03:05:11;1.43;;;1.33;;
2173;SDS011;1093;51.424;11.764;2023-11-19T03:07:40;2.27;;;1.70;;
2173;SDS011;1093;51.424;11.764;2023-11-19T03:10:08;1.80;;;1.60;;
2173;SDS011;1093;51.424;11.764;2023-11-19T03:12:38;1.60;;;1.50;;
2173;SDS011;1093;51.424;11.764;2023-11-19T03:15:06;3.47;;;1.80;;
2173;SDS011;1093;51.424;11.764;2023-11-19T03:17:35;1.50;;;1.40;;
2173;SDS011;1093;51.424;11.764;2023-11-19T03:20:04;4.33;;;1.63;;
2173;SDS011;1093;51.424;11.764;2023-11-19T03:22:34;2.47;;;1.27;;
2173;SDS011;1093;51.424;11.764;2023-11-19T03:25:03;1.83;;;1.60;;
2173;SDS011;1093;51.424;11.764;2023-11-19T03:27:33;1.70;;;1.60;;
2173;SDS011;1093;51.424;11.764;2023-11-19T03:30:00;2.53;;;1.30;;
2173;SDS011;1093;51.424;11.764;2023-11-19T03:32:27;1.57;;;1.40;;
2173;SDS011;1093;51.424;11.764;2023-11-19T03:34:54;1.30;;;1.20;;
2173;SDS011;1093;51.424;11.764;2023-11-19T03:37:23;1.13;;;1.03;;
2173;SDS011;1093;51.424;11.764;2023-11-19T03:39:50;3.00;;;1.30;;
2173;SDS011;1093;51.424;11.764;2023-11-19T03:42:18;1.20;;;1.10;;
2173;SDS011;1093;51.424;11.764;2023-11-19T03:44:45;1.30;;;1.20;;
2173;SDS011;1093;51.424;11.764;2023-11-19T03:47:14;1.10;;;1.00;;
2173;SDS011;1093;51.424;11.764;2023-11-19T03:49:41;1.63;;;1.50;;
2173;SDS011;1093;51.424;11.764;2023-11-19T03:52:09;1.40;;;1.30;;
2173;SDS011;1093;51.424;11.764;2023-11-19T03:54:37;1.50;;;1.40;;
2173;SDS011;1093;51.424;11.764;2023-11-19T03:57:04;1.70;;;1.60;;
2173;SDS011;1093;51.424;11.764;2023-11-19T03:59:31;8.93;;;1.90;;
2173;SDS011;1093;51.424;11.764;2023-11-19T04:01:58;1.23;;;1.13;;
2173;SDS011;1093;51.424;11.764;2023-11-19T04:04:27;1.43;;;1.33;;
2173;SDS011;1093;51.424;11.764;2023-11-19T04:06:55;1.40;;;1.30;;
2173;SDS011;1093;51.424;11.764;2023-11-19T04:09:23;2.93;;;1.40;;
2173;SDS011;1093;51.424;11.764;2023-11-19T04:11:51;1.33;;;1.30;;
2173;SDS011;1093;51.424;11.764;2023-11-19T04:14:18;1.30;;;1.20;;
2173;SDS011;1093;51.424;11.764;2023-11-19T04:16:45;1.27;;;1.17;;
2173;SDS011;1093;51.424;11.764;2023-11-19T04:19:12;1.50;;;1.40;;
2173;SDS011;1093;51.424;11.764;2023-11-19T04:21:39;3.57;;;1.30;;
2173;SDS011;1093;51.424;11.764;2023-11-19T04:24:07;1.47;;;1.37;;
2173;SDS011;1093;51.424;11.764;2023-11-19T04:26:39;1.50;;;1.40;;
2173;SDS011;1093;51.424;11.764;2023-11-19T04:29:08;1.60;;;1.50;;
2173;SDS011;1093;51.424;11.764;2023-11-19T04:31:36;1.87;;;1.63;;
2173;SDS011;1093;51.424;11.764;2023-11-19T04:34:03;1.30;;;1.20;;
2173;SDS011;1093;51.424;11.764;2023-11-19T04:36:30;1.77;;;1.53;;
2173;SDS011;1093;51.424;11.764;2023-11-19T04:38:56;1.43;;;1.30;;
2173;SDS011;1093;51.424;11.764;2023-11-19T04:41:24;1.30;;;1.20;;
2173;SDS011;1093;51.424;11.764;2023-11-19T04:43:52;1.53;;;1.43;;
2173;SDS011;1093;51.424;11.764;2023-11-19T04:46:20;1.57;;;1.47;;
2173;SDS011;1093;51.424;11.764;2023-11-19T04:48:48;1.43;;;1.33;;
2173;SDS011;1093;51.424;11.764;2023-11-19T04:51:15;1.10;;;1.00;;
2173;SDS011;1093;51.424;11.764;2023-11-19T04:53:42;3.00;;;1.10;;
2173;SDS011;1093;51.424;11.764;2023-11-19T04:56:09;1.13;;;1.10;;
2173;SDS011;1093;51.424;11.764;2023-11-19T04:58:36;0.90;;;0.90;;
2173;SDS011;1093;51.424;11.764;2023-11-19T05:01:03;0.97;;;0.77;;
2173;SDS011;1093;51.424;11.764;2023-11-19T05:03:32;1.20;;;1.10;;
2173;SDS011;1093;51.424;11.764;2023-11-19T05:05:59;1.63;;;1.43;;
2173;SDS011;1093;51.424;11.764;2023-11-19T05:08:26;1.07;;;1.07;;
2173;SDS011;1093;51.424;11.764;2023-11-19T05:10:53;1.43;;;1.30;;
2173;SDS011;1093;51.424;11.764;2023-11-19T05:13:19;1.03;;;0.97;;
2173;SDS011;1093;51.424;11.764;2023-11-19T05:15:47;1.30;;;1.20;;
2173;SDS011;1093;51.424;11.764;2023-11-19T05:18:14;2.77;;;1.17;;
2173;SDS011;1093;51.424;11.764;2023-11-19T05:20:42;2.03;;;1.33;;
2173;SDS011;1093;51.424;11.764;2023-11-19T05:23:09;1.00;;;0.90;;
2173;SDS011;1093;51.424;11.764;2023-11-19T05:25:36;0.93;;;0.90;;
2173;SDS011;1093;51.424;11.764;2023-11-19T05:28:03;1.00;;;1.00;;
2173;SDS011;1093;51.424;11.764;2023-11-19T05:30:30;1.30;;;1.20;;
2173;SDS011;1093;51.424;11.764;2023-11-19T05:32:57;1.10;;;1.00;;
2173;SDS011;1093;51.424;11.764;2023-11-19T05:35:23;2.30;;;1.23;;
2173;SDS011;1093;51.424;11.764;2023-11-19T05:37:51;1.17;;;1.07;;
2173;SDS011;1093;51.424;11.764;2023-11-19T05:40:18;1.17;;;1.07;;
2173;SDS011;1093;51.424;11.764;2023-11-19T05:42:45;1.40;;;1.30;;
2173;SDS011;1093;51.424;11.764;2023-11-19T05:45:12;1.10;;;1.00;;
2173;SDS011;1093;51.424;11.764;2023-11-19T05:47:39;1.67;;;1.10;;
2173;SDS011;1093;51.424;11.764;2023-11-19T05:50:07;1.50;;;1.40;;
2173;SDS011;1093;51.424;11.764;2023-11-19T05:52:35;1.00;;;0.90;;
2173;SDS011;1093;51.424;11.764;2023-11-19T05:55:04;1.20;;;1.10;;
2173;SDS011;1093;51.424;11.764;2023-11-19T05:57:34;1.37;;;1.27;;
2173;SDS011;1093;51.424;11.764;2023-11-19T06:00:01;1.20;;;1.10;;
2173;SDS011;1093;51.424;11.764;2023-11-19T06:02:31;1.53;;;1.20;;
2173;SDS011;1093;51.424;11.764;2023-11-19T06:04:58;1.33;;;1.23;;
2173;SDS011;1093;51.424;11.764;2023-11-19T06:07:25;1.30;;;1.20;;
2173;SDS011;1093;51.424;11.764;2023-11-19T06:09:52;1.03;;;0.93;;
2173;SDS011;1093;51.424;11.764;2023-11-19T06:12:20;1.20;;;1.10;;
2173;SDS011;1093;51.424;11.764;2023-11-19T06:14:47;1.43;;;1.03;;
2173;SDS011;1093;51.424;11.764;2023-11-19T06:17:14;2.10;;;1.23;;
2173;SDS011;1093;51.424;11.764;2023-11-19T06:19:41;1.07;;;1.00;;
2173;SDS011;1093;51.424;11.764;2023-11-19T06:22:07;1.00;;;1.00;;
2173;SDS011;1093;51.424;11.764;2023-11-19T06:24:34;1.30;;;1.10;;
2173;SDS011;1093;51.424;11.764;2023-11-19T06:27:01;1.00;;;1.00;;
2173;SDS011;1093;51.424;11.764;2023-11-19T06:29:30;2.40;;;1.30;;
2173;SDS011;1093;51.424;11.764;2023-11-19T06:31:57;2.70;;;0.93;;
2173;SDS011;1093;51.424;11.764;2023-11-19T06:34:24;0.80;;;0.80;;
2173;SDS011;1093;51.424;11.764;2023-11-19T06:36:51;1.07;;;1.07;;
2173;SDS011;1093;51.424;11.764;2023-11-19T06:39:18;1.27;;;1.17;;
2173;SDS011;1093;51.424;11.764;2023-11-19T06:41:45;1.30;;;1.20;;
2173;SDS011;1093;51.424;11.764;2023-11-19T06:44:12;1.33;;;1.10;;
2173;SDS011;1093;51.424;11.764;2023-11-19T06:46:41;1.50;;;1.40;;
2173;SDS011;1093;51.424;11.764;2023-11-19T06:49:07;1.33;;;1.23;;
2173;SDS011;1093;51.424;11.764;2023-11-19T06:51:34;1.23;;;1.13;;
2173;SDS011;1093;51.424;11.764;2023-11-19T06:54:01;1.47;;;1.20;;
2173;SDS011;1093;51.424;11.764;2023-11-19T06:56:28;1.63;;;1.10;;
2173;SDS011;1093;51.424;11.764;2023-11-19T06:58:55;1.77;;;1.30;;
2173;SDS011;1093;51.424;11.764;2023-11-19T07:01:21;1.40;;;1.30;;
2173;SDS011;1093;51.424;11.764;2023-11-19T07:03:50;2.13;;;1.83;;
2173;SDS011;1093;51.424;11.764;2023-11-19T07:06:17;1.67;;;1.57;;
2173;SDS011;1093;51.424;11.764;2023-11-19T07:08:44;2.77;;;1.70;;
2173;SDS011;1093;51.424;11.764;2023-11-19T07:11:11;1.43;;;1.30;;
2173;SDS011;1093;51.424;11.764;2023-11-19T07:13:39;1.80;;;1.70;;
2173;SDS011;1093;51.424;11.764;2023-11-19T07:16:07;1.50;;;1.40;;
2173;SDS011;1093;51.424;11.764;2023-11-19T07:18:35;2.20;;;2.00;;
2173;SDS011;1093;51.424;11.764;2023-11-19T07:21:06;1.50;;;1.40;;
2173;SDS011;1093;51.424;11.764;2023-11-19T07:23:35;2.13;;;1.50;;
2173;SDS011;1093;51.424;11.764;2023-11-19T07:26:04;1.50;;;1.40;;
2173;SDS011;1093;51.424;11.764;2023-11-19T07:28:33;1.17;;;1.07;;
2173;SDS011;1093;51.424;11.764;2023-11-19T07:31:00;1.57;;;1.07;;
2173;SDS011;1093;51.424;11.764;2023-11-19T07:33:27;1.43;;;1.00;;
2173;SDS011;1093;51.424;11.764;2023-11-19T07:35:54;1.10;;;0.87;;
2173;SDS011;1093;51.424;11.764;2023-11-19T07:38:22;1.37;;;1.27;;
2173;SDS011;1093;51.424;11.764;2023-11-19T07:40:49;1.97;;;1.87;;
2173;SDS011;1093;51.424;11.764;2023-11-19T07:43:16;2.60;;;1.47;;
2173;SDS011;1093;51.424;11.764;2023-11-19T07:45:43;3.33;;;1.20;;
2173;SDS011;1093;51.424;11.764;2023-11-19T07:48:11;1.63;;;1.50;;
2173;SDS011;1093;51.424;11.764;2023-11-19T07:50:38;4.30;;;1.90;;
2173;SDS011;1093;51.424;11.764;2023-11-19T07:53:06;3.27;;;1.67;;
2173;SDS011;1093;51.424;11.764;2023-11-19T07:55:35;1.80;;;1.60;;
2173;SDS011;1093;51.424;11.764;2023-11-19T07:58:02;5.83;;;1.93;;
2173;SDS011;1093;51.424;11.764;2023-11-19T08:00:29;1.67;;;1.57;;
2173;SDS011;1093;51.424;11.764;2023-11-19T08:02:55;1.63;;;1.47;;
2173;SDS011;1093;51.424;11.764;2023-11-19T08:05:22;2.43;;;1.43;;
2173;SDS011;1093;51.424;11.764;2023-11-19T08:07:49;3.10;;;2.10;;
2173;SDS011;1093;51.424;11.764;2023-11-19T08:10:18;2.00;;;1.73;;
2173;SDS011;1093;51.424;11.764;2023-11-19T08:12:46;9.57;;;2.20;;
2173;SDS011;1093;51.424;11.764;2023-11-19T08:15:12;2.47;;;2.27;;
2173;SDS011;1093;51.424;11.764;2023-11-19T08:17:40;7.00;;;2.67;;
2173;SDS011;1093;51.424;11.764;2023-11-19T08:20:09;3.77;;;1.80;;
2173;SDS011;1093;51.424;11.764;2023-11-19T08:22:36;1.37;;;1.23;;
2173;SDS011;1093;51.424;11.764;2023-11-19T08:25:04;6.30;;;2.00;;
2173;SDS011;1093;51.424;11.764;2023-11-19T08:27:31;2.30;;;1.80;;
2173;SDS011;1093;51.424;11.764;2023-11-19T08:29:59;2.00;;;1.40;;
2173;SDS011;1093;51.424;11.764;2023-11-19T08:32:26;2.00;;;1.77;;
2173;SDS011;1093;51.424;11.764;2023-11-19T08:34:53;6.73;;;1.87;;
2173;SDS011;1093;51.424;11.764;2023-11-19T08:37:21;2.07;;;1.90;;
2173;SDS011;1093;51.424;11.764;2023-11-19T08:39:47;3.63;;;1.70;;
2173;SDS011;1093;51.424;11.764;2023-11-19T08:42:14;3.17;;;1.40;;
2173;SDS011;1093;51.424;11.764;2023-11-19T08:44:41;3.03;;;1.40;;
2173;SDS011;1093;51.424;11.764;2023-11-19T08:47:10;2.33;;;1.50;;
2173;SDS011;1093;51.424;11.764;2023-11-19T08:49:37;4.43;;;1.67;;
2173;SDS011;1093;51.424;11.764;2023-11-19T08:52:04;2.00;;;1.50;;
2173;SDS011;1093;51.424;11.764;2023-11-19T08:54:32;2.33;;;2.10;;
2173;SDS011;1093;51.424;11.764;2023-11-19T08:56:59;2.30;;;1.80;;
2173;SDS011;1093;51.424;11.764;2023-11-19T08:59:28;2.67;;;1.60;;
2173;SDS011;1093;51.424;11.764;2023-11-19T09:01:54;7.30;;;2.53;;
2173;SDS011;1093;51.424;11.764;2023-11-19T09:04:23;2.00;;;1.57;;
2173;SDS011;1093;51.424;11.764;2023-11-19T09:06:50;5.00;;;2.10;;
2173;SDS011;1093;51.424;11.764;2023-11-19T09:09:17;3.10;;;2.90;;
2173;SDS011;1093;51.424;11.764;2023-11-19T09:11:43;3.43;;;3.13;;
2173;SDS011;1093;51.424;11.764;2023-11-19T09:14:10;4.40;;;3.47;;
2173;SDS011;1093;51.424;11.764;2023-11-19T09:16:37;2.30;;;2.10;;
2173;SDS011;1093;51.424;11.764;2023-11-19T09:19:04;2.97;;;2.67;;
2173;SDS011;1093;51.424;11.764;2023-11-19T09:21:32;4.40;;;2.67;;
2173;SDS011;1093;51.424;11.764;2023-11-19T09:24:03;4.30;;;2.30;;
2173;SDS011;1093;51.424;11.764;2023-11-19T09:26:30;3.97;;;1.90;;
2173;SDS011;1093;51.424;11.764;2023-11-19T09:28:57;3.47;;;1.97;;
2173;SDS011;1093;51.424;11.764;2023-11-19T09:31:23;3.70;;;1.90;;
2173;SDS011;1093;51.424;11.764;2023-11-19T09:33:50;3.00;;;2.50;;
2173;SDS011;1093;51.424;11.764;2023-11-19T09:36:17;7.30;;;2.43;;
2173;SDS011;1093;51.424;11.764;2023-11-19T09:38:45;2.97;;;1.90;;
2173;SDS011;1093;51.424;11.764;2023-11-19T09:41:12;6.70;;;2.70;;
2173;SDS011;1093;51.424;11.764;2023-11-19T09:43:39;3.17;;;2.57;;
2173;SDS011;1093;51.424;11.764;2023-11-19T09:46:09;11.93;;;2.40;;
2173;SDS011;1093;51.424;11.764;2023-11-19T09:48:37;7.00;;;2.07;;
2173;SDS011;1093;51.424;11.764;2023-11-19T09:51:05;3.40;;;2.20;;
2173;SDS011;1093;51.424;11.764;2023-11-19T09:53:33;6.87;;;2.70;;
2173;SDS011;1093;51.424;11.764;2023-11-19T09:56:02;2.90;;;2.50;;
2173;SDS011;1093;51.424;11.764;2023-11-19T09:58:31;18.97;;;3.70;;
2173;SDS011;1093;51.424;11.764;2023-11-19T10:00:58;3.40;;;2.30;;
2173;SDS011;1093;51.424;11.764;2023-11-19T10:03:25;4.40;;;1.70;;
2173;SDS011;1093;51.424;11.764;2023-11-19T10:05:58;11.50;;;2.40;;
2173;SDS011;1093;51.424;11.764;2023-11-19T10:08:27;4.63;;;1.47;;
2173;SDS011;1093;51.424;11.764;2023-11-19T10:10:55;2.63;;;2.37;;
2173;SDS011;1093;51.424;11.764;2023-11-19T10:13:27;6.00;;;2.50;;
2173;SDS011;1093;51.424;11.764;2023-11-19T10:15:55;3.20;;;2.00;;
2173;SDS011;1093;51.424;11.764;2023-11-19T10:18:23;8.70;;;2.30;;
2173;SDS011;1093;51.424;11.764;2023-11-19T10:20:52;3.10;;;2.60;;
2173;SDS011;1093;51.424;11.764;2023-11-19T10:23:19;7.10;;;2.13;;
2173;SDS011;1093;51.424;11.764;2023-11-19T10:25:46;5.03;;;2.10;;
2173;SDS011;1093;51.424;11.764;2023-11-19T10:28:14;7.97;;;2.33;;
2173;SDS011;1093;51.424;11.764;2023-11-19T10:30:43;5.87;;;2.73;;
2173;SDS011;1093;51.424;11.764;2023-11-19T10:33:11;10.30;;;2.63;;
2173;SDS011;1093;51.424;11.764;2023-11-19T10:35:51;5.93;;;3.00;;
2173;SDS011;1093;51.424;11.764;2023-11-19T10:38:19;7.47;;;2.60;;
2173;SDS011;1093;51.424;11.764;2023-11-19T10:40:47;9.40;;;1.90;;
2173;SDS011;1093;51.424;11.764;2023-11-19T10:43:14;5.67;;;2.70;;
2173;SDS011;1093;51.424;11.764;2023-11-19T10:45:41;7.60;;;3.57;;
2173;SDS011;1093;51.424;11.764;2023-11-19T10:48:09;9.03;;;2.53;;
2173;SDS011;1093;51.424;11.764;2023-11-19T10:50:38;5.43;;;2.67;;
2173;SDS011;1093;51.424;11.764;2023-11-19T10:53:07;7.03;;;2.93;;
2173;SDS011;1093;51.424;11.764;2023-11-19T10:55:35;17.73;;;3.30;;
2173;SDS011;1093;51.424;11.764;2023-11-19T10:58:04;7.10;;;2.53;;
2173;SDS011;1093;51.424;11.764;2023-11-19T11:00:33;5.50;;;3.00;;
2173;SDS011;1093;51.424;11.764;2023-11-19T11:03:05;11.93;;;2.70;;
2173;SDS011;1093;51.424;11.764;2023-11-19T11:05:37;11.03;;;3.20;;
2173;SDS011;1093;51.424;11.764;2023-11-19T11:08:05;9.60;;;2.83;;
2173;SDS011;1093;51.424;11.764;2023-11-19T11:10:35;5.67;;;2.50;;
2173;SDS011;1093;51.424;11.764;2023-11-19T11:13:05;7.07;;;2.80;;
2173;SDS011;1093;51.424;11.764;2023-11-19T11:15:32;9.97;;;3.03;;
2173;SDS011;1093;51.424;11.764;2023-11-19T11:18:01;13.97;;;3.60;;
2173;SDS011;1093;51.424;11.764;2023-11-19T11:20:30;7.23;;;4.00;;
2173;SDS011;1093;51.424;11.764;2023-11-19T11:23:06;6.70;;;3.20;;
2173;SDS011;1093;51.424;11.764;2023-11-19T11:25:51;7.83;;;3.30;;
2173;SDS011;1093;51.424;11.764;2023-11-19T11:28:26;12.90;;;4.33;;
2173;SDS011;1093;51.424;11.764;2023-11-19T11:36:57;4.63;;;2.97;;
2173;SDS011;1093;51.424;11.764;2023-11-19T11:39:36;11.43;;;4.90;;
2173;SDS011;1093;51.424;11.764;2023-11-19T11:45:03;14.67;;;4.40;;
2173;SDS011;1093;51.424;11.764;2023-11-19T11:50:52;15.60;;;4.00;;
2173;SDS011;1093;51.424;11.764;2023-11-19T11:53:23;15.57;;;3.53;;
2173;SDS011;1093;51.424;11.764;2023-11-19T11:55:57;9.13;;;3.50;;
2173;SDS011;1093;51.424;11.764;2023-11-19T11:58:34;21.43;;;3.37;;
2173;SDS011;1093;51.424;11.764;2023-11-19T12:01:03;8.87;;;3.40;;
2173;SDS011;1093;51.424;11.764;2023-11-19T12:03:31;11.13;;;4.30;;
2173;SDS011;1093;51.424;11.764;2023-11-19T12:05:59;10.63;;;3.13;;
2173;SDS011;1093;51.424;11.764;2023-11-19T12:08:28;14.63;;;3.07;;
2173;SDS011;1093;51.424;11.764;2023-11-19T12:14:27;11.83;;;3.77;;
2173;SDS011;1093;51.424;11.764;2023-11-19T12:17:36;9.77;;;2.53;;
2173;SDS011;1093;51.424;11.764;2023-11-19T12:20:15;13.33;;;4.77;;
2173;SDS011;1093;51.424;11.764;2023-11-19T12:22:43;10.20;;;3.70;;
2173;SDS011;1093;51.424;11.764;2023-11-19T12:27:49;17.73;;;4.10;;
2173;SDS011;1093;51.424;11.764;2023-11-19T12:30:37;10.37;;;3.73;;
2173;SDS011;1093;51.424;11.764;2023-11-19T12:33:21;14.00;;;4.70;;
2173;SDS011;1093;51.424;11.764;2023-11-19T12:35:58;17.97;;;4.30;;
2173;SDS011;1093;51.424;11.764;2023-11-19T12:38:57;12.37;;;3.60;;
2173;SDS011;1093;51.424;11.764;2023-11-19T12:41:53;14.70;;;4.00;;
2173;SDS011;1093;51.424;11.764;2023-11-19T12:44:21;14.00;;;4.37;;
2173;SDS011;1093;51.424;11.764;2023-11-19T12:47:04;8.80;;;3.20;;
2173;SDS011;1093;51.424;11.764;2023-11-19T12:49:36;15.80;;;4.30;;
2173;SDS011;1093;51.424;11.764;2023-11-19T12:52:11;20.13;;;3.83;;
2173;SDS011;1093;51.424;11.764;2023-11-19T12:54:44;7.77;;;3.40;;
2173;SDS011;1093;51.424;11.764;2023-11-19T12:57:12;13.20;;;3.90;;
2173;SDS011;1093;51.424;11.764;2023-11-19T12:59:41;12.43;;;3.63;;
2173;SDS011;1093;51.424;11.764;2023-11-19T13:02:17;11.20;;;4.10;;
2173;SDS011;1093;51.424;11.764;2023-11-19T13:04:47;20.57;;;4.47;;
2173;SDS011;1093;51.424;11.764;2023-11-19T13:07:24;12.57;;;4.43;;
2173;SDS011;1093;51.424;11.764;2023-11-19T13:10:17;13.63;;;3.73;;
2173;SDS011;1093;51.424;11.764;2023-11-19T13:13:00;13.93;;;3.80;;
2173;SDS011;1093;51.424;11.764;2023-11-19T13:15:29;12.83;;;3.83;;
2173;SDS011;1093;51.424;11.764;2023-11-19T13:18:01;9.50;;;2.60;;
2173;SDS011;1093;51.424;11.764;2023-11-19T13:20:35;10.03;;;4.20;;
2173;SDS011;1093;51.424;11.764;2023-11-19T13:23:07;13.77;;;3.47;;
2173;SDS011;1093;51.424;11.764;2023-11-19T13:25:37;10.57;;;3.87;;
2173;SDS011;1093;51.424;11.764;2023-11-19T13:28:04;6.40;;;3.37;;
2173;SDS011;1093;51.424;11.764;2023-11-19T13:30:33;12.53;;;3.70;;
2173;SDS011;1093;51.424;11.764;2023-11-19T13:33:03;9.43;;;4.03;;
2173;SDS011;1093;51.424;11.764;2023-11-19T13:35:30;12.60;;;3.37;;
2173;SDS011;1093;51.424;11.764;2023-11-19T13:37:57;17.23;;;4.00;;
2173;SDS011;1093;51.424;11.764;2023-11-19T13:40:24;8.90;;;3.43;;
2173;SDS011;1093;51.424;11.764;2023-11-19T13:42:58;19.33;;;3.63;;
2173;SDS011;1093;51.424;11.764;2023-11-19T13:45:27;14.67;;;3.50;;
2173;SDS011;1093;51.424;11.764;2023-11-19T13:47:57;11.67;;;4.77;;
2173;SDS011;1093;51.424;11.764;2023-11-19T13:50:24;13.70;;;4.50;;
2173;SDS011;1093;51.424;11.764;2023-11-19T13:52:51;20.70;;;4.70;;
2173;SDS011;1093;51.424;11.764;2023-11-19T13:55:19;24.23;;;3.40;;
2173;SDS011;1093;51.424;11.764;2023-11-19T13:57:48;8.43;;;3.40;;
2173;SDS011;1093;51.424;11.764;2023-11-19T14:00:16;19.20;;;4.43;;
2173;SDS011;1093;51.424;11.764;2023-11-19T14:02:44;13.30;;;4.30;;
2173;SDS011;1093;51.424;11.764;2023-11-19T14:05:20;10.13;;;3.23;;
2173;SDS011;1093;51.424;11.764;2023-11-19T14:07:50;7.60;;;3.27;;
2173;SDS011;1093;51.424;11.764;2023-11-19T14:10:30;12.93;;;3.40;;
2173;SDS011;1093;51.424;11.764;2023-11-19T14:13:04;20.23;;;3.93;;
2173;SDS011;1093;51.424;11.764;2023-11-19T14:15:32;18.20;;;3.63;;
2173;SDS011;1093;51.424;11.764;2023-11-19T14:18:01;19.43;;;4.23;;
2173;SDS011;1093;51.424;11.764;2023-11-19T14:20:29;14.00;;;3.63;;
2173;SDS011;1093;51.424;11.764;2023-11-19T14:22:59;9.73;;;3.10;;
2173;SDS011;1093;51.424;11.764;2023-11-19T14:25:30;14.57;;;3.83;;
2173;SDS011;1093;51.424;11.764;2023-11-19T14:28:00;9.53;;;3.40;;
2173;SDS011;1093;51.424;11.764;2023-11-19T14:30:28;10.63;;;3.13;;
2173;SDS011;1093;51.424;11.764;2023-11-19T14:32:56;8.00;;;3.93;;
2173;SDS011;1093;51.424;11.764;2023-11-19T14:35:25;12.90;;;3.93;;
2173;SDS011;1093;51.424;11.764;2023-11-19T14:37:56;13.00;;;3.60;;
2173;SDS011;1093;51.424;11.764;2023-11-19T14:40:23;9.13;;;3.27;;
2173;SDS011;1093;51.424;11.764;2023-11-19T14:42:50;10.67;;;3.50;;
2173;SDS011;1093;51.424;11.764;2023-11-19T14:45:21;12.27;;;3.57;;
2173;SDS011;1093;51.424;11.764;2023-11-19T14:47:48;8.27;;;3.60;;
2173;SDS011;1093;51.424;11.764;2023-11-19T14:50:17;8.87;;;3.07;;
2173;SDS011;1093;51.424;11.764;2023-11-19T14:52:48;9.03;;;3.00;;
2173;SDS011;1093;51.424;11.764;2023-11-19T14:55:19;16.63;;;3.77;;
2173;SDS011;1093;51.424;11.764;2023-11-19T14:57:46;7.13;;;3.00;;
2173;SDS011;1093;51.424;11.764;2023-11-19T15:03:37;10.00;;;3.50;;
2173;SDS011;1093;51.424;11.764;2023-11-19T15:06:04;11.63;;;3.23;;
2173;SDS011;1093;51.424;11.764;2023-11-19T15:08:32;13.43;;;4.03;;
2173;SDS011;1093;51.424;11.764;2023-11-19T15:11:04;9.63;;;3.60;;
2173;SDS011;1093;51.424;11.764;2023-11-19T15:13:32;10.87;;;3.63;;
2173;SDS011;1093;51.424;11.764;2023-11-19T15:16:01;10.93;;;4.20;;
2173;SDS011;1093;51.424;11.764;2023-11-19T15:18:30;13.47;;;4.10;;
2173;SDS011;1093;51.424;11.764;2023-11-19T15:20:57;10.30;;;4.30;;
2173;SDS011;1093;51.424;11.764;2023-11-19T15:23:24;8.80;;;3.83;;
2173;SDS011;1093;51.424;11.764;2023-11-19T15:25:51;18.27;;;4.13;;
2173;SDS011;1093;51.424;11.764;2023-11-19T15:28:20;11.77;;;3.47;;
2173;SDS011;1093;51.424;11.764;2023-11-19T15:30:50;9.90;;;4.40;;